sensor_id;sensor_type;location;lat;lon;timestamp;P1;durP1;ratioP1;P2;durP2;ratioP2
64395;SDS011;50717;53.360;6.290;2023-02-28T00:01:23;10.70;;;2.20;;
64395;SDS011;50717;53.360;6.290;2023-02-28T00:03:49;15.45;;;2.45;;
64395;SDS011;50717;53.360;6.290;2023-02-28T00:06:14;15.57;;;2.50;;
64395;SDS011;50717;53.360;6.290;2023-02-28T00:08:40;6.70;;;2.40;;
64395;SDS011;50717;53.360;6.290;2023-02-28T00:11:07;14.35;;;2.70;;
64395;SDS011;50717;53.360;6.290;2023-02-28T00:13:36;7.47;;;2.08;;
64395;SDS011;50717;53.360;6.290;2023-02-28T00:16:07;11.27;;;2.15;;
64395;SDS011;50717;53.360;6.290;2023-02-28T00:18:35;11.57;;;2.58;;
64395;SDS011;50717;53.360;6.290;2023-02-28T00:21:01;12.80;;;2.28;;
64395;SDS011;50717;53.360;6.290;2023-02-28T00:23:27;11.60;;;2.10;;
64395;SDS011;50717;53.360;6.290;2023-02-28T00:25:53;7.60;;;2.00;;
64395;SDS011;50717;53.360;6.290;2023-02-28T00:28:19;5.70;;;1.88;;
64395;SDS011;50717;53.360;6.290;2023-02-28T00:30:45;3.78;;;1.83;;
64395;SDS011;50717;53.360;6.290;2023-02-28T00:33:11;13.02;;;2.42;;
64395;SDS011;50717;53.360;6.290;2023-02-28T00:35:37;12.77;;;2.20;;
64395;SDS011;50717;53.360;6.290;2023-02-28T00:38:03;12.40;;;2.20;;
64395;SDS011;50717;53.360;6.290;2023-02-28T00:40:29;17.15;;;1.90;;
64395;SDS011;50717;53.360;6.290;2023-02-28T00:42:55;6.20;;;1.83;;
64395;SDS011;50717;53.360;6.290;2023-02-28T00:45:21;12.75;;;1.90;;
64395;SDS011;50717;53.360;6.290;2023-02-28T00:47:46;12.02;;;2.50;;
64395;SDS011;50717;53.360;6.290;2023-02-28T00:50:16;6.97;;;1.58;;
64395;SDS011;50717;53.360;6.290;2023-02-28T00:52:43;14.13;;;2.40;;
64395;SDS011;50717;53.360;6.290;2023-02-28T00:55:09;8.02;;;1.73;;
64395;SDS011;50717;53.360;6.290;2023-02-28T00:57:34;8.52;;;1.75;;
64395;SDS011;50717;53.360;6.290;2023-02-28T01:00:00;7.70;;;1.95;;
64395;SDS011;50717;53.360;6.290;2023-02-28T01:02:26;10.43;;;1.90;;
64395;SDS011;50717;53.360;6.290;2023-02-28T01:04:52;9.02;;;1.80;;
64395;SDS011;50717;53.360;6.290;2023-02-28T01:07:17;11.93;;;2.28;;
64395;SDS011;50717;53.360;6.290;2023-02-28T01:09:43;12.50;;;2.35;;
64395;SDS011;50717;53.360;6.290;2023-02-28T01:12:09;9.85;;;2.13;;
64395;SDS011;50717;53.360;6.290;2023-02-28T01:14:35;9.45;;;2.15;;
64395;SDS011;50717;53.360;6.290;2023-02-28T01:17:01;12.07;;;2.10;;
64395;SDS011;50717;53.360;6.290;2023-02-28T01:19:27;7.43;;;2.00;;
64395;SDS011;50717;53.360;6.290;2023-02-28T01:21:52;19.25;;;2.53;;
64395;SDS011;50717;53.360;6.290;2023-02-28T01:24:18;10.15;;;2.20;;
64395;SDS011;50717;53.360;6.290;2023-02-28T01:26:44;6.18;;;1.70;;
64395;SDS011;50717;53.360;6.290;2023-02-28T01:29:10;14.18;;;2.03;;
64395;SDS011;50717;53.360;6.290;2023-02-28T01:31:35;12.20;;;2.95;;
64395;SDS011;50717;53.360;6.290;2023-02-28T01:34:01;7.38;;;2.17;;
64395;SDS011;50717;53.360;6.290;2023-02-28T01:36:28;10.35;;;2.25;;
64395;SDS011;50717;53.360;6.290;2023-02-28T01:38:54;7.35;;;2.08;;
64395;SDS011;50717;53.360;6.290;2023-02-28T01:41:21;10.77;;;1.83;;
64395;SDS011;50717;53.360;6.290;2023-02-28T01:46:15;5.90;;;1.88;;
64395;SDS011;50717;53.360;6.290;2023-02-28T01:51:10;8.45;;;2.13;;
64395;SDS011;50717;53.360;6.290;2023-02-28T01:53:44;7.05;;;1.83;;
64395;SDS011;50717;53.360;6.290;2023-02-28T01:56:15;9.32;;;1.88;;
64395;SDS011;50717;53.360;6.290;2023-02-28T01:58:48;6.30;;;1.77;;
64395;SDS011;50717;53.360;6.290;2023-02-28T02:01:18;14.73;;;2.30;;
64395;SDS011;50717;53.360;6.290;2023-02-28T02:03:52;11.30;;;1.63;;
64395;SDS011;50717;53.360;6.290;2023-02-28T02:06:30;11.80;;;1.95;;
64395;SDS011;50717;53.360;6.290;2023-02-28T02:09:02;13.15;;;1.77;;
64395;SDS011;50717;53.360;6.290;2023-02-28T02:11:28;10.13;;;2.25;;
64395;SDS011;50717;53.360;6.290;2023-02-28T02:27:23;9.50;;;2.10;;
64395;SDS011;50717;53.360;6.290;2023-02-28T02:35:13;13.82;;;5.30;;
64395;SDS011;50717;53.360;6.290;2023-02-28T02:43:53;10.27;;;2.17;;
64395;SDS011;50717;53.360;6.290;2023-02-28T02:49:00;13.48;;;2.08;;
64395;SDS011;50717;53.360;6.290;2023-02-28T02:51:29;19.98;;;2.95;;
64395;SDS011;50717;53.360;6.290;2023-02-28T02:53:59;13.25;;;5.50;;
64395;SDS011;50717;53.360;6.290;2023-02-28T02:56:31;13.68;;;3.10;;
64395;SDS011;50717;53.360;6.290;2023-02-28T02:59:00;9.63;;;2.80;;
64395;SDS011;50717;53.360;6.290;2023-02-28T03:01:32;14.38;;;3.25;;
64395;SDS011;50717;53.360;6.290;2023-02-28T03:04:02;9.43;;;3.33;;
64395;SDS011;50717;53.360;6.290;2023-02-28T03:06:30;9.57;;;3.20;;
64395;SDS011;50717;53.360;6.290;2023-02-28T03:08:56;9.18;;;3.38;;
64395;SDS011;50717;53.360;6.290;2023-02-28T03:11:22;9.93;;;2.20;;
64395;SDS011;50717;53.360;6.290;2023-02-28T03:25:34;10.75;;;2.08;;
64395;SDS011;50717;53.360;6.290;2023-02-28T03:31:26;8.65;;;1.65;;
64395;SDS011;50717;53.360;6.290;2023-02-28T03:34:07;8.98;;;2.35;;
64395;SDS011;50717;53.360;6.290;2023-02-28T03:36:50;8.07;;;2.13;;
64395;SDS011;50717;53.360;6.290;2023-02-28T03:39:27;8.93;;;2.33;;
64395;SDS011;50717;53.360;6.290;2023-02-28T03:41:59;7.63;;;2.00;;
64395;SDS011;50717;53.360;6.290;2023-02-28T03:44:30;8.63;;;2.08;;
64395;SDS011;50717;53.360;6.290;2023-02-28T03:47:08;6.32;;;2.85;;
64395;SDS011;50717;53.360;6.290;2023-02-28T03:52:29;9.98;;;2.65;;
64395;SDS011;50717;53.360;6.290;2023-02-28T03:55:00;9.43;;;2.70;;
64395;SDS011;50717;53.360;6.290;2023-02-28T03:59:59;9.50;;;2.40;;
64395;SDS011;50717;53.360;6.290;2023-02-28T04:02:31;6.00;;;2.67;;
64395;SDS011;50717;53.360;6.290;2023-02-28T04:04:57;6.72;;;2.10;;
64395;SDS011;50717;53.360;6.290;2023-02-28T04:07:24;4.97;;;2.10;;
64395;SDS011;50717;53.360;6.290;2023-02-28T04:09:53;6.10;;;2.33;;
64395;SDS011;50717;53.360;6.290;2023-02-28T04:12:19;8.35;;;2.20;;
64395;SDS011;50717;53.360;6.290;2023-02-28T04:14:46;8.05;;;2.20;;
64395;SDS011;50717;53.360;6.290;2023-02-28T04:17:11;9.93;;;2.25;;
64395;SDS011;50717;53.360;6.290;2023-02-28T04:19:37;6.72;;;2.40;;
64395;SDS011;50717;53.360;6.290;2023-02-28T04:22:03;11.20;;;2.90;;
64395;SDS011;50717;53.360;6.290;2023-02-28T04:24:28;8.88;;;2.05;;
64395;SDS011;50717;53.360;6.290;2023-02-28T04:26:55;6.90;;;2.80;;
64395;SDS011;50717;53.360;6.290;2023-02-28T04:29:23;10.10;;;2.90;;
64395;SDS011;50717;53.360;6.290;2023-02-28T04:31:51;10.27;;;3.25;;
64395;SDS011;50717;53.360;6.290;2023-02-28T04:34:22;8.10;;;3.22;;
64395;SDS011;50717;53.360;6.290;2023-02-28T04:36:49;10.55;;;3.20;;
64395;SDS011;50717;53.360;6.290;2023-02-28T04:39:16;10.73;;;3.03;;
64395;SDS011;50717;53.360;6.290;2023-02-28T04:41:43;11.85;;;3.33;;
64395;SDS011;50717;53.360;6.290;2023-02-28T04:44:12;9.32;;;2.90;;
64395;SDS011;50717;53.360;6.290;2023-02-28T04:46:39;10.05;;;2.97;;
64395;SDS011;50717;53.360;6.290;2023-02-28T04:49:04;15.00;;;3.88;;
64395;SDS011;50717;53.360;6.290;2023-02-28T04:51:30;7.68;;;3.17;;
64395;SDS011;50717;53.360;6.290;2023-02-28T04:53:56;10.30;;;3.10;;
64395;SDS011;50717;53.360;6.290;2023-02-28T04:56:21;11.68;;;2.75;;
64395;SDS011;50717;53.360;6.290;2023-02-28T04:58:47;10.73;;;2.92;;
64395;SDS011;50717;53.360;6.290;2023-02-28T05:03:53;7.85;;;2.60;;
64395;SDS011;50717;53.360;6.290;2023-02-28T05:06:20;14.93;;;3.13;;
64395;SDS011;50717;53.360;6.290;2023-02-28T05:08:48;11.13;;;3.20;;
64395;SDS011;50717;53.360;6.290;2023-02-28T05:11:16;12.18;;;2.80;;
64395;SDS011;50717;53.360;6.290;2023-02-28T05:13:43;9.27;;;2.97;;
64395;SDS011;50717;53.360;6.290;2023-02-28T05:16:09;14.93;;;3.55;;
64395;SDS011;50717;53.360;6.290;2023-02-28T05:18:35;11.57;;;2.95;;
64395;SDS011;50717;53.360;6.290;2023-02-28T05:21:01;16.85;;;3.25;;
64395;SDS011;50717;53.360;6.290;2023-02-28T05:23:28;7.85;;;3.47;;
64395;SDS011;50717;53.360;6.290;2023-02-28T05:25:54;25.70;;;14.25;;
64395;SDS011;50717;53.360;6.290;2023-02-28T05:28:20;17.15;;;9.25;;
64395;SDS011;50717;53.360;6.290;2023-02-28T05:30:46;18.58;;;4.13;;
64395;SDS011;50717;53.360;6.290;2023-02-28T05:35:41;7.55;;;3.90;;
64395;SDS011;50717;53.360;6.290;2023-02-28T05:38:10;8.68;;;3.72;;
64395;SDS011;50717;53.360;6.290;2023-02-28T05:40:37;14.50;;;4.30;;
64395;SDS011;50717;53.360;6.290;2023-02-28T05:43:05;13.30;;;4.10;;
64395;SDS011;50717;53.360;6.290;2023-02-28T05:45:31;13.43;;;4.43;;
64395;SDS011;50717;53.360;6.290;2023-02-28T05:47:57;10.38;;;4.90;;
64395;SDS011;50717;53.360;6.290;2023-02-28T05:50:22;11.88;;;4.93;;
64395;SDS011;50717;53.360;6.290;2023-02-28T05:52:51;10.95;;;5.38;;
64395;SDS011;50717;53.360;6.290;2023-02-28T05:55:18;11.10;;;6.47;;
64395;SDS011;50717;53.360;6.290;2023-02-28T05:57:44;12.48;;;8.38;;
64395;SDS011;50717;53.360;6.290;2023-02-28T06:00:09;16.05;;;9.45;;
64395;SDS011;50717;53.360;6.290;2023-02-28T06:02:36;15.18;;;10.23;;
64395;SDS011;50717;53.360;6.290;2023-02-28T06:05:04;18.45;;;10.60;;
64395;SDS011;50717;53.360;6.290;2023-02-28T06:07:32;17.60;;;11.77;;
64395;SDS011;50717;53.360;6.290;2023-02-28T06:09:57;17.58;;;12.30;;
64395;SDS011;50717;53.360;6.290;2023-02-28T06:12:23;23.48;;;13.40;;
64395;SDS011;50717;53.360;6.290;2023-02-28T06:14:49;18.52;;;11.63;;
64395;SDS011;50717;53.360;6.290;2023-02-28T06:17:15;16.13;;;11.20;;
64395;SDS011;50717;53.360;6.290;2023-02-28T06:19:41;15.27;;;9.48;;
64395;SDS011;50717;53.360;6.290;2023-02-28T06:22:06;12.88;;;8.65;;
64395;SDS011;50717;53.360;6.290;2023-02-28T06:24:32;13.38;;;7.80;;
64395;SDS011;50717;53.360;6.290;2023-02-28T06:26:58;11.38;;;8.02;;
64395;SDS011;50717;53.360;6.290;2023-02-28T06:29:30;13.82;;;7.93;;
64395;SDS011;50717;53.360;6.290;2023-02-28T06:31:57;13.82;;;8.00;;
64395;SDS011;50717;53.360;6.290;2023-02-28T06:34:23;11.15;;;7.78;;
64395;SDS011;50717;53.360;6.290;2023-02-28T06:36:50;12.50;;;8.50;;
64395;SDS011;50717;53.360;6.290;2023-02-28T06:39:16;16.73;;;8.35;;
64395;SDS011;50717;53.360;6.290;2023-02-28T06:41:42;18.33;;;9.07;;
64395;SDS011;50717;53.360;6.290;2023-02-28T06:44:17;15.05;;;8.48;;
64395;SDS011;50717;53.360;6.290;2023-02-28T06:46:43;13.68;;;9.35;;
64395;SDS011;50717;53.360;6.290;2023-02-28T06:49:10;19.90;;;9.95;;
64395;SDS011;50717;53.360;6.290;2023-02-28T06:51:38;16.30;;;9.23;;
64395;SDS011;50717;53.360;6.290;2023-02-28T06:54:06;17.40;;;10.05;;
64395;SDS011;50717;53.360;6.290;2023-02-28T06:56:35;17.70;;;10.63;;
64395;SDS011;50717;53.360;6.290;2023-02-28T06:59:01;15.48;;;9.65;;
64395;SDS011;50717;53.360;6.290;2023-02-28T07:01:27;14.48;;;9.05;;
64395;SDS011;50717;53.360;6.290;2023-02-28T07:03:53;16.98;;;10.45;;
64395;SDS011;50717;53.360;6.290;2023-02-28T07:08:47;18.02;;;9.52;;
64395;SDS011;50717;53.360;6.290;2023-02-28T07:11:14;17.40;;;10.88;;
64395;SDS011;50717;53.360;6.290;2023-02-28T07:16:07;18.45;;;10.57;;
64395;SDS011;50717;53.360;6.290;2023-02-28T07:18:33;20.77;;;11.68;;
64395;SDS011;50717;53.360;6.290;2023-02-28T07:21:11;14.98;;;10.05;;
64395;SDS011;50717;53.360;6.290;2023-02-28T07:23:37;18.27;;;10.68;;
64395;SDS011;50717;53.360;6.290;2023-02-28T07:28:30;17.98;;;10.32;;
64395;SDS011;50717;53.360;6.290;2023-02-28T07:30:55;15.05;;;10.40;;
64395;SDS011;50717;53.360;6.290;2023-02-28T07:33:21;19.58;;;10.98;;
64395;SDS011;50717;53.360;6.290;2023-02-28T07:35:48;15.77;;;10.35;;
64395;SDS011;50717;53.360;6.290;2023-02-28T07:38:14;15.13;;;10.40;;
64395;SDS011;50717;53.360;6.290;2023-02-28T07:40:40;16.05;;;10.25;;
64395;SDS011;50717;53.360;6.290;2023-02-28T07:43:06;15.75;;;9.93;;
64395;SDS011;50717;53.360;6.290;2023-02-28T07:45:31;17.38;;;11.18;;
64395;SDS011;50717;53.360;6.290;2023-02-28T07:47:59;22.33;;;12.13;;
64395;SDS011;50717;53.360;6.290;2023-02-28T07:52:54;25.60;;;13.23;;
64395;SDS011;50717;53.360;6.290;2023-02-28T07:55:20;22.30;;;13.30;;
64395;SDS011;50717;53.360;6.290;2023-02-28T07:57:45;23.13;;;13.85;;
64395;SDS011;50717;53.360;6.290;2023-02-28T08:00:11;21.40;;;13.38;;
64395;SDS011;50717;53.360;6.290;2023-02-28T08:02:40;20.85;;;12.82;;
64395;SDS011;50717;53.360;6.290;2023-02-28T08:05:06;19.95;;;12.93;;
64395;SDS011;50717;53.360;6.290;2023-02-28T08:09:58;20.55;;;12.48;;
64395;SDS011;50717;53.360;6.290;2023-02-28T08:12:24;20.75;;;12.35;;
64395;SDS011;50717;53.360;6.290;2023-02-28T08:14:50;19.35;;;12.15;;
64395;SDS011;50717;53.360;6.290;2023-02-28T08:17:16;22.55;;;12.40;;
64395;SDS011;50717;53.360;6.290;2023-02-28T08:19:45;20.60;;;12.20;;
64395;SDS011;50717;53.360;6.290;2023-02-28T08:22:11;21.05;;;12.82;;
64395;SDS011;50717;53.360;6.290;2023-02-28T08:24:37;19.45;;;12.00;;
64395;SDS011;50717;53.360;6.290;2023-02-28T08:27:02;15.98;;;11.18;;
64395;SDS011;50717;53.360;6.290;2023-02-28T08:29:28;19.92;;;11.88;;
64395;SDS011;50717;53.360;6.290;2023-02-28T08:31:55;19.23;;;12.40;;
64395;SDS011;50717;53.360;6.290;2023-02-28T08:34:21;20.90;;;13.30;;
64395;SDS011;50717;53.360;6.290;2023-02-28T08:36:46;20.75;;;12.20;;
64395;SDS011;50717;53.360;6.290;2023-02-28T08:39:12;21.20;;;12.75;;
64395;SDS011;50717;53.360;6.290;2023-02-28T08:41:38;18.98;;;12.95;;
64395;SDS011;50717;53.360;6.290;2023-02-28T08:44:04;21.88;;;12.95;;
64395;SDS011;50717;53.360;6.290;2023-02-28T08:46:30;17.92;;;12.18;;
64395;SDS011;50717;53.360;6.290;2023-02-28T08:48:56;21.10;;;13.23;;
64395;SDS011;50717;53.360;6.290;2023-02-28T08:51:26;20.00;;;13.07;;
64395;SDS011;50717;53.360;6.290;2023-02-28T08:53:57;19.02;;;12.45;;
64395;SDS011;50717;53.360;6.290;2023-02-28T08:56:25;21.30;;;13.18;;
64395;SDS011;50717;53.360;6.290;2023-02-28T08:58:51;21.23;;;13.18;;
64395;SDS011;50717;53.360;6.290;2023-02-28T09:01:24;20.48;;;13.40;;
64395;SDS011;50717;53.360;6.290;2023-02-28T09:03:52;19.90;;;12.85;;
64395;SDS011;50717;53.360;6.290;2023-02-28T09:08:44;17.00;;;11.40;;
64395;SDS011;50717;53.360;6.290;2023-02-28T09:11:10;16.55;;;11.93;;
64395;SDS011;50717;53.360;6.290;2023-02-28T09:13:37;21.10;;;12.80;;
64395;SDS011;50717;53.360;6.290;2023-02-28T09:16:04;22.55;;;13.70;;
64395;SDS011;50717;53.360;6.290;2023-02-28T09:18:33;27.23;;;14.38;;
64395;SDS011;50717;53.360;6.290;2023-02-28T09:20:59;20.60;;;13.85;;
64395;SDS011;50717;53.360;6.290;2023-02-28T09:23:27;23.48;;;14.00;;
64395;SDS011;50717;53.360;6.290;2023-02-28T09:25:53;18.65;;;13.25;;
64395;SDS011;50717;53.360;6.290;2023-02-28T09:28:20;22.08;;;13.60;;
64395;SDS011;50717;53.360;6.290;2023-02-28T09:30:48;20.60;;;13.88;;
64395;SDS011;50717;53.360;6.290;2023-02-28T09:33:14;22.52;;;14.25;;
64395;SDS011;50717;53.360;6.290;2023-02-28T09:35:41;22.02;;;13.35;;
64395;SDS011;50717;53.360;6.290;2023-02-28T09:38:08;27.38;;;15.00;;
64395;SDS011;50717;53.360;6.290;2023-02-28T09:40:46;23.55;;;14.68;;
64395;SDS011;50717;53.360;6.290;2023-02-28T09:43:17;21.80;;;14.20;;
64395;SDS011;50717;53.360;6.290;2023-02-28T09:45:48;23.30;;;14.95;;
64395;SDS011;50717;53.360;6.290;2023-02-28T09:48:24;22.90;;;15.02;;
64395;SDS011;50717;53.360;6.290;2023-02-28T09:51:05;20.35;;;14.30;;
64395;SDS011;50717;53.360;6.290;2023-02-28T09:53:41;20.98;;;13.55;;
64395;SDS011;50717;53.360;6.290;2023-02-28T09:56:08;20.23;;;14.50;;
64395;SDS011;50717;53.360;6.290;2023-02-28T10:01:46;19.83;;;12.93;;
64395;SDS011;50717;53.360;6.290;2023-02-28T10:04:35;17.50;;;11.77;;
64395;SDS011;50717;53.360;6.290;2023-02-28T10:13:04;19.85;;;12.35;;
64395;SDS011;50717;53.360;6.290;2023-02-28T10:15:52;17.55;;;11.93;;
64395;SDS011;50717;53.360;6.290;2023-02-28T10:18:56;17.92;;;11.45;;
64395;SDS011;50717;53.360;6.290;2023-02-28T10:21:38;16.15;;;10.68;;
64395;SDS011;50717;53.360;6.290;2023-02-28T10:26:58;16.73;;;10.45;;
64395;SDS011;50717;53.360;6.290;2023-02-28T10:29:27;14.75;;;9.85;;
64395;SDS011;50717;53.360;6.290;2023-02-28T10:31:56;16.73;;;10.50;;
64395;SDS011;50717;53.360;6.290;2023-02-28T10:34:23;14.82;;;9.95;;
64395;SDS011;50717;53.360;6.290;2023-02-28T10:39:48;14.65;;;9.55;;
64395;SDS011;50717;53.360;6.290;2023-02-28T10:42:28;14.52;;;10.23;;
64395;SDS011;50717;53.360;6.290;2023-02-28T10:47:35;14.88;;;10.25;;
64395;SDS011;50717;53.360;6.290;2023-02-28T10:50:22;13.65;;;8.80;;
64395;SDS011;50717;53.360;6.290;2023-02-28T10:52:53;15.32;;;9.13;;
64395;SDS011;50717;53.360;6.290;2023-02-28T10:55:24;15.45;;;8.38;;
64395;SDS011;50717;53.360;6.290;2023-02-28T10:57:51;13.10;;;8.30;;
64395;SDS011;50717;53.360;6.290;2023-02-28T11:02:47;12.98;;;8.52;;
64395;SDS011;50717;53.360;6.290;2023-02-28T11:05:32;12.98;;;8.65;;
64395;SDS011;50717;53.360;6.290;2023-02-28T11:10:30;14.63;;;8.63;;
64395;SDS011;50717;53.360;6.290;2023-02-28T11:12:59;12.88;;;8.45;;
64395;SDS011;50717;53.360;6.290;2023-02-28T11:15:27;11.40;;;7.78;;
64395;SDS011;50717;53.360;6.290;2023-02-28T11:18:02;13.55;;;8.13;;
64395;SDS011;50717;53.360;6.290;2023-02-28T11:20:44;12.48;;;7.78;;
64395;SDS011;50717;53.360;6.290;2023-02-28T11:23:14;12.05;;;7.47;;
64395;SDS011;50717;53.360;6.290;2023-02-28T11:25:46;11.05;;;6.70;;
64395;SDS011;50717;53.360;6.290;2023-02-28T11:28:31;11.73;;;6.25;;
64395;SDS011;50717;53.360;6.290;2023-02-28T11:31:19;13.13;;;7.38;;
64395;SDS011;50717;53.360;6.290;2023-02-28T11:33:47;12.30;;;7.30;;
64395;SDS011;50717;53.360;6.290;2023-02-28T11:36:21;13.18;;;8.10;;
64395;SDS011;50717;53.360;6.290;2023-02-28T11:38:54;11.85;;;7.68;;
64395;SDS011;50717;53.360;6.290;2023-02-28T11:44:16;11.30;;;7.32;;
64395;SDS011;50717;53.360;6.290;2023-02-28T11:46:50;11.80;;;7.10;;
64395;SDS011;50717;53.360;6.290;2023-02-28T11:57:14;9.35;;;6.90;;
64395;SDS011;50717;53.360;6.290;2023-02-28T12:00:00;12.35;;;7.07;;
64395;SDS011;50717;53.360;6.290;2023-02-28T12:02:55;10.70;;;6.65;;
64395;SDS011;50717;53.360;6.290;2023-02-28T12:05:50;9.68;;;6.32;;
64395;SDS011;50717;53.360;6.290;2023-02-28T12:08:49;11.90;;;6.38;;
64395;SDS011;50717;53.360;6.290;2023-02-28T12:17:22;7.90;;;5.67;;
64395;SDS011;50717;53.360;6.290;2023-02-28T12:27:51;8.05;;;5.07;;
64395;SDS011;50717;53.360;6.290;2023-02-28T12:33:06;7.05;;;4.85;;
64395;SDS011;50717;53.360;6.290;2023-02-28T12:35:37;8.80;;;5.65;;
64395;SDS011;50717;53.360;6.290;2023-02-28T12:38:14;8.48;;;5.40;;
64395;SDS011;50717;53.360;6.290;2023-02-28T12:43:37;9.93;;;5.63;;
64395;SDS011;50717;53.360;6.290;2023-02-28T12:46:09;10.07;;;6.00;;
64395;SDS011;50717;53.360;6.290;2023-02-28T12:48:42;9.75;;;5.80;;
64395;SDS011;50717;53.360;6.290;2023-02-28T12:51:11;9.13;;;5.38;;
64395;SDS011;50717;53.360;6.290;2023-02-28T12:59:11;8.95;;;5.65;;
64395;SDS011;50717;53.360;6.290;2023-02-28T13:10:38;8.98;;;5.63;;
64395;SDS011;50717;53.360;6.290;2023-02-28T13:13:06;9.35;;;4.88;;
64395;SDS011;50717;53.360;6.290;2023-02-28T13:15:40;8.73;;;5.47;;
64395;SDS011;50717;53.360;6.290;2023-02-28T13:18:25;8.60;;;6.55;;
64395;SDS011;50717;53.360;6.290;2023-02-28T13:20:54;12.70;;;6.13;;
64395;SDS011;50717;53.360;6.290;2023-02-28T13:23:40;8.82;;;5.55;;
64395;SDS011;50717;53.360;6.290;2023-02-28T13:26:06;7.57;;;5.35;;
64395;SDS011;50717;53.360;6.290;2023-02-28T13:31:18;10.32;;;6.50;;
64395;SDS011;50717;53.360;6.290;2023-02-28T13:54:45;7.72;;;5.28;;
64395;SDS011;50717;53.360;6.290;2023-02-28T14:02:54;6.85;;;5.10;;
64395;SDS011;50717;53.360;6.290;2023-02-28T14:05:35;9.15;;;6.05;;
64395;SDS011;50717;53.360;6.290;2023-02-28T14:08:05;9.00;;;5.60;;
64395;SDS011;50717;53.360;6.290;2023-02-28T14:10:49;9.02;;;5.82;;
64395;SDS011;50717;53.360;6.290;2023-02-28T14:15:59;10.10;;;6.47;;
64395;SDS011;50717;53.360;6.290;2023-02-28T14:18:31;10.20;;;6.47;;
64395;SDS011;50717;53.360;6.290;2023-02-28T14:21:11;9.88;;;6.22;;
64395;SDS011;50717;53.360;6.290;2023-02-28T14:32:25;10.82;;;7.38;;
64395;SDS011;50717;53.360;6.290;2023-02-28T14:34:55;10.15;;;7.10;;
64395;SDS011;50717;53.360;6.290;2023-02-28T14:37:28;9.90;;;7.03;;
64395;SDS011;50717;53.360;6.290;2023-02-28T14:39:57;10.02;;;6.82;;
64395;SDS011;50717;53.360;6.290;2023-02-28T14:42:34;9.73;;;6.88;;
64395;SDS011;50717;53.360;6.290;2023-02-28T14:45:03;9.38;;;6.35;;
64395;SDS011;50717;53.360;6.290;2023-02-28T14:47:33;10.43;;;6.60;;
64395;SDS011;50717;53.360;6.290;2023-02-28T14:50:01;9.98;;;6.70;;
64395;SDS011;50717;53.360;6.290;2023-02-28T14:52:30;8.60;;;7.00;;
64395;SDS011;50717;53.360;6.290;2023-02-28T14:55:06;11.23;;;7.13;;
64395;SDS011;50717;53.360;6.290;2023-02-28T14:57:39;10.38;;;7.05;;
64395;SDS011;50717;53.360;6.290;2023-02-28T15:02:55;10.88;;;6.80;;
64395;SDS011;50717;53.360;6.290;2023-02-28T15:05:29;11.23;;;7.43;;
64395;SDS011;50717;53.360;6.290;2023-02-28T15:08:11;13.82;;;7.82;;
64395;SDS011;50717;53.360;6.290;2023-02-28T15:10:50;11.35;;;7.35;;
64395;SDS011;50717;53.360;6.290;2023-02-28T15:13:19;10.27;;;7.85;;
64395;SDS011;50717;53.360;6.290;2023-02-28T15:15:56;10.13;;;7.90;;
64395;SDS011;50717;53.360;6.290;2023-02-28T15:21:54;11.60;;;7.80;;
64395;SDS011;50717;53.360;6.290;2023-02-28T15:24:06;11.82;;;8.52;;
64395;SDS011;50717;53.360;6.290;2023-02-28T15:26:39;12.18;;;8.10;;
64395;SDS011;50717;53.360;6.290;2023-02-28T15:29:11;10.57;;;7.68;;
64395;SDS011;50717;53.360;6.290;2023-02-28T15:31:44;10.18;;;7.28;;
64395;SDS011;50717;53.360;6.290;2023-02-28T15:34:35;12.60;;;7.78;;
64395;SDS011;50717;53.360;6.290;2023-02-28T15:37:53;10.68;;;7.88;;
64395;SDS011;50717;53.360;6.290;2023-02-28T15:40:04;10.70;;;8.15;;
64395;SDS011;50717;53.360;6.290;2023-02-28T15:48:04;11.48;;;7.72;;
64395;SDS011;50717;53.360;6.290;2023-02-28T15:50:31;13.43;;;8.00;;
64395;SDS011;50717;53.360;6.290;2023-02-28T15:52:57;16.35;;;8.10;;
64395;SDS011;50717;53.360;6.290;2023-02-28T15:55:24;11.38;;;8.07;;
64395;SDS011;50717;53.360;6.290;2023-02-28T15:57:54;13.23;;;8.38;;
64395;SDS011;50717;53.360;6.290;2023-02-28T16:00:24;14.77;;;8.40;;
64395;SDS011;50717;53.360;6.290;2023-02-28T16:02:51;12.40;;;8.27;;
64395;SDS011;50717;53.360;6.290;2023-02-28T16:05:18;17.02;;;8.75;;
64395;SDS011;50717;53.360;6.290;2023-02-28T16:07:45;12.32;;;8.15;;
64395;SDS011;50717;53.360;6.290;2023-02-28T16:10:13;14.63;;;8.05;;
64395;SDS011;50717;53.360;6.290;2023-02-28T16:15:15;12.27;;;8.05;;
64395;SDS011;50717;53.360;6.290;2023-02-28T16:17:47;14.30;;;8.45;;
64395;SDS011;50717;53.360;6.290;2023-02-28T16:20:13;11.15;;;7.70;;
64395;SDS011;50717;53.360;6.290;2023-02-28T16:22:41;12.20;;;7.97;;
64395;SDS011;50717;53.360;6.290;2023-02-28T16:25:10;14.27;;;7.28;;
64395;SDS011;50717;53.360;6.290;2023-02-28T16:27:37;12.15;;;7.75;;
64395;SDS011;50717;53.360;6.290;2023-02-28T16:30:04;9.93;;;7.50;;
64395;SDS011;50717;53.360;6.290;2023-02-28T16:32:32;15.52;;;8.18;;
64395;SDS011;50717;53.360;6.290;2023-02-28T16:35:00;10.35;;;7.72;;
64395;SDS011;50717;53.360;6.290;2023-02-28T16:37:26;10.57;;;7.55;;
64395;SDS011;50717;53.360;6.290;2023-02-28T16:39:53;13.90;;;8.02;;
64395;SDS011;50717;53.360;6.290;2023-02-28T16:42:22;13.15;;;8.40;;
64395;SDS011;50717;53.360;6.290;2023-02-28T16:44:51;14.63;;;8.48;;
64395;SDS011;50717;53.360;6.290;2023-02-28T16:47:18;18.25;;;8.77;;
64395;SDS011;50717;53.360;6.290;2023-02-28T16:49:44;17.17;;;8.30;;
64395;SDS011;50717;53.360;6.290;2023-02-28T16:52:10;13.90;;;8.82;;
64395;SDS011;50717;53.360;6.290;2023-02-28T16:54:37;15.40;;;8.73;;
64395;SDS011;50717;53.360;6.290;2023-02-28T16:57:04;15.82;;;8.38;;
64395;SDS011;50717;53.360;6.290;2023-02-28T16:59:30;13.48;;;8.07;;
64395;SDS011;50717;53.360;6.290;2023-02-28T17:01:57;11.35;;;8.27;;
64395;SDS011;50717;53.360;6.290;2023-02-28T17:04:26;14.05;;;8.55;;
64395;SDS011;50717;53.360;6.290;2023-02-28T17:06:52;14.68;;;9.45;;
64395;SDS011;50717;53.360;6.290;2023-02-28T17:09:20;14.55;;;8.48;;
64395;SDS011;50717;53.360;6.290;2023-02-28T17:11:47;15.02;;;8.65;;
64395;SDS011;50717;53.360;6.290;2023-02-28T17:14:13;14.13;;;8.50;;
64395;SDS011;50717;53.360;6.290;2023-02-28T17:16:39;16.25;;;9.13;;
64395;SDS011;50717;53.360;6.290;2023-02-28T17:19:09;11.40;;;8.57;;
64395;SDS011;50717;53.360;6.290;2023-02-28T17:21:37;14.48;;;10.00;;
64395;SDS011;50717;53.360;6.290;2023-02-28T17:26:30;18.17;;;9.93;;
64395;SDS011;50717;53.360;6.290;2023-02-28T17:28:56;14.55;;;8.98;;
64395;SDS011;50717;53.360;6.290;2023-02-28T17:31:26;13.35;;;9.63;;
64395;SDS011;50717;53.360;6.290;2023-02-28T17:33:52;12.70;;;9.07;;
64395;SDS011;50717;53.360;6.290;2023-02-28T17:36:24;15.95;;;10.02;;
64395;SDS011;50717;53.360;6.290;2023-02-28T17:38:52;15.70;;;10.23;;
64395;SDS011;50717;53.360;6.290;2023-02-28T17:41:20;17.85;;;10.57;;
64395;SDS011;50717;53.360;6.290;2023-02-28T17:43:46;14.25;;;9.93;;
64395;SDS011;50717;53.360;6.290;2023-02-28T17:46:19;14.57;;;9.48;;
64395;SDS011;50717;53.360;6.290;2023-02-28T17:48:47;17.25;;;10.25;;
64395;SDS011;50717;53.360;6.290;2023-02-28T17:51:14;18.10;;;9.15;;
64395;SDS011;50717;53.360;6.290;2023-02-28T17:53:40;18.92;;;10.48;;
64395;SDS011;50717;53.360;6.290;2023-02-28T17:56:12;15.73;;;9.48;;
64395;SDS011;50717;53.360;6.290;2023-02-28T17:58:40;13.90;;;9.27;;
64395;SDS011;50717;53.360;6.290;2023-02-28T18:01:06;21.58;;;13.15;;
64395;SDS011;50717;53.360;6.290;2023-02-28T18:03:32;53.70;;;31.13;;